Time,TemperatureF,DewpointF,PressureIn,WindDirection,WindDirectionDegrees,WindSpeedMPH,WindSpeedGustMPH,Humidity,HourlyPrecipIn,Conditions,Clouds,dailyrainin,SoftwareType,DateUTC
2013-07-02 00:01:00,61.0,44.0,-100.00,South,176,12.0,16.0,53,0.00,,,-99.99,,2013-07-02 06:01:00,
2013-07-02 00:11:00,61.0,43.0,-100.00,South,185,12.0,14.0,52,0.00,,,-99.99,,2013-07-02 06:11:00,
2013-07-02 00:43:00,62.0,42.0,-100.00,South,176,10.0,13.0,48,0.00,,,-99.99,,2013-07-02 06:43:00,
2013-07-02 01:44:00,61.0,41.0,-100.00,SSE,168,7.0,11.0,47,0.00,,,-99.99,,2013-07-02 07:44:00,
2013-07-02 02:12:00,60.0,41.0,-100.00,South,171,7.0,9.0,48,0.00,,,-99.99,,2013-07-02 08:12:00,
2013-07-02 02:44:00,60.0,41.0,-100.00,South,169,7.0,9.0,48,0.00,,,-99.99,,2013-07-02 08:44:00,
2013-07-02 03:01:00,60.0,41.0,-100.00,South,175,7.0,9.0,49,0.00,,,-99.99,,2013-07-02 09:01:00,
2013-07-02 03:43:00,57.0,40.0,-100.00,SSE,167,1.0,3.0,53,0.00,,,-99.99,,2013-07-02 09:43:00,
2013-07-02 03:52:00,56.0,40.0,-100.00,SW,222,1.0,4.0,55,0.00,,,-99.99,,2013-07-02 09:52:00,
2013-07-02 04:11:00,56.0,40.0,-100.00,South,186,1.0,4.0,54,0.00,,,-99.99,,2013-07-02 10:11:00,
2013-07-02 04:33:00,58.0,40.0,-100.00,SSW,208,2.0,3.0,53,0.00,,,-99.99,,2013-07-02 10:33:00,
2013-07-02 04:43:00,58.0,40.0,-100.00,SW,224,1.0,2.0,51,0.00,,,-99.99,,2013-07-02 10:43:00,
2013-07-02 05:42:00,58.0,41.0,-100.00,SSW,200,0.0,1.0,53,0.00,,,-99.99,,2013-07-02 11:42:00,
2013-07-02 06:11:00,57.0,40.0,-100.00,West,263,1.0,2.0,54,0.00,,,-99.99,,2013-07-02 12:11:00,
2013-07-02 06:43:00,57.0,41.0,-100.00,SW,227,1.0,3.0,54,0.00,,,-99.99,,2013-07-02 12:43:00,
2013-07-02 07:43:00,60.0,43.0,-100.00,WNW,299,4.0,4.0,53,0.00,,,-99.99,,2013-07-02 13:43:00,
2013-07-02 08:43:00,63.0,42.0,-100.00,NW,326,3.0,6.0,46,0.00,,,-99.99,,2013-07-02 14:43:00,
2013-07-02 09:11:00,64.0,42.0,-100.00,North,10,4.0,7.0,44,0.00,,,-99.99,,2013-07-02 15:11:00,
2013-07-02 09:33:00,65.0,41.0,-100.00,NNE,25,5.0,9.0,42,0.00,,,-99.99,,2013-07-02 15:33:00,
2013-07-02 09:44:00,65.0,42.0,-100.00,NE,44,4.0,7.0,43,0.00,,,-99.99,,2013-07-02 15:44:00,
2013-07-02 10:12:00,65.0,43.0,-100.00,North,356,4.0,9.0,45,0.00,,,-99.99,,2013-07-02 16:12:00,
2013-07-02 10:43:00,66.0,43.0,-100.00,NE,41,6.0,12.0,43,0.00,,,-99.99,,2013-07-02 16:43:00,
2013-07-02 12:43:00,70.0,39.0,-100.00,West,268,4.0,11.0,33,0.00,,,-99.99,,2013-07-02 18:43:00,
2013-07-02 13:43:00,71.0,37.0,-100.00,NNE,14,4.0,14.0,29,0.00,,,-99.99,,2013-07-02 19:43:00,
2013-07-02 14:02:00,70.0,37.0,-100.00,ESE,112,4.0,7.0,30,0.00,,,-99.99,,2013-07-02 20:02:00,
2013-07-02 14:43:00,72.0,36.0,-100.00,NNW,333,7.0,13.0,27,0.00,,,-99.99,,2013-07-02 20:43:00,
2013-07-02 15:43:00,74.0,34.0,-100.00,NNE,23,9.0,21.0,24,0.00,,,-99.99,,2013-07-02 21:43:00,
2013-07-02 16:11:00,75.0,33.0,-100.00,NE,38,9.0,14.0,21,0.00,,,-99.99,,2013-07-02 22:11:00,
2013-07-02 16:43:00,75.0,35.0,-100.00,North,0,7.0,13.0,23,0.00,,,-99.99,,2013-07-02 22:43:00,
2013-07-02 17:01:00,75.0,37.0,-100.00,NE,34,10.0,17.0,25,0.00,,,-99.99,,2013-07-02 23:01:00,
2013-07-02 17:33:00,75.0,35.0,-100.00,NE,34,9.0,12.0,24,0.00,,,-99.99,,2013-07-02 23:33:00,
2013-07-02 17:44:00,72.0,36.0,-100.00,NNE,32,9.0,12.0,27,0.00,,,-99.99,,2013-07-02 23:44:00,
2013-07-02 18:01:00,74.0,33.0,-100.00,NE,52,9.0,13.0,22,0.00,,,-99.99,,2013-07-03 00:01:00,
2013-07-02 18:44:00,73.0,36.0,-100.00,NE,48,9.0,14.0,25,0.00,,,-99.99,,2013-07-03 00:44:00,
2013-07-02 19:11:00,71.0,37.0,-100.00,NE,54,7.0,10.0,28,0.00,,,-99.99,,2013-07-03 01:11:00,
2013-07-02 19:42:00,70.0,36.0,-100.00,NE,55,5.0,8.0,29,0.00,,,-99.99,,2013-07-03 01:42:00,
2013-07-02 20:43:00,67.0,38.0,-100.00,ESE,107,6.0,9.0,34,0.00,,,-99.99,,2013-07-03 02:43:00,
2013-07-02 22:43:00,61.0,38.0,-100.00,SSE,152,9.0,12.0,42,0.00,,,-99.99,,2013-07-03 04:43:00,
2013-07-02 23:45:00,62.0,37.0,-100.00,South,176,14.0,17.0,38,0.00,,,-99.99,,2013-07-03 05:45:00,